Irving, Oregon
Current Conditions -  °F | °C
As of 2:54 PM on Monday 22 Dec 2014 (Local Time) from KEUG Reporting Station
Broken Clouds Broken Clouds  
Wind Chill: 56°   Ceiling: 2700
Heat Index: 56°   Visibility: 10mi
Dew Point: 50°   Wind: 3mph
Humidity: 80%   Direction: 60°ENE
Pressure: 30.34"   Gusts: NA
Location:  44.0685°N, 123.082°W
Report Text: KEUG 222254Z 06003KT 10SM SCT016 BKN027 BKN120 13/10 A3034 RMK AO2 SLP274 T01330100
Loading
Personal Weather Stations






























Interactive Weather Map New forecast layout! Learn more

10-Day Weather Forecast

Advertisements
Track Severe Weather on mobile